• Join FlightAware (Why Join?)
  • Login
  • US Flag 
09:55PM EDT


 

Airport Tracker/Info


-or-


 

Live Flight TrackerFlight Track Log ✈ VRT51 ✈ 09-Oct-2013 ✈ KTYS - KBNA

Flight Track Log - Related Links

Times and Time Zones

All times are in EDT time to prevent confusion due to time zone crossing. See the VRT51 flight status page for this flight to view local times or setup timezone preferences in your user account.

Time Position Orientation Groundspeed Altitude Reporting Facility
EDT Latitude Longitude Course Direction KTS MPH feet Rate Location/Type
02:34PM 35.8831 -84.0056 260° West 223 257 6,200  Level Atlanta Center
02:35PM 35.8706 -84.0925 260° West 222 255 8,800 3,300 Climbing Atlanta Center
02:36PM 35.8539 -84.1900 258° West 263 303 12,900 3,900 Climbing Atlanta Center
02:37PM 35.8347 -84.2975 258° West 296 341 16,700 3,420 Climbing Atlanta Center
02:38PM 35.8158 -84.4178 259° West 333 383 19,800 1,620 Climbing Atlanta Center
02:39PM 35.7944 -84.5533 259° West 376 433 20,000 60 Climbing Atlanta Center
02:41PM 35.7408 -84.8658 258° West 421 484 20,000  Level Memphis Center
02:42PM 35.7144 -85.0236 258° West 426 490 20,000  Level Memphis Center
02:43PM 35.6892 -85.1658 258° West 426 490 20,000  Level Memphis Center
02:44PM 35.6639 -85.3081 258° West 433 498 20,000 -480 Level Memphis Center
02:45PM 35.6589 -85.4461 267° West 428 493 19,100 -1,620 Descending Memphis Center
02:46PM 35.6603 -85.5892 271° West 428 493 16,900 -2,400 Descending Memphis Center
02:47PM 35.6633 -85.7269 272° West 422 486 14,300 -2,160 Descending Memphis Center
02:48PM 35.6611 -85.8369 269° West 416 479 12,600 -2,160 Descending Memphis Center
02:49PM 35.6647 -85.9953 272° West 406 467 10,100 -1,320 Descending Memphis Center
02:50PM 35.6936 -86.1061 288° West 351 404 10,000 -60 Descending Memphis Center
02:51PM 35.7636 -86.1972 313° West 356 410 10,000  Level Memphis Center
02:52PM 35.8289 -86.2836 313° West 363 418 10,000 -240 Level Memphis Center
02:53PM 35.8875 -86.3575 314° West 332 382 9,600 -1,080 Descending Memphis Center
02:54PM 35.9442 -86.4342 312° West 305 351 7,900 -1,680 Descending Memphis Center
02:55PM 35.9986 -86.5033 314° West 297 342 6,300 -960 Descending Memphis Center
02:56PM 36.0464 -86.5653 314° West 268 308 6,000 -660 Descending Memphis Center
02:57PM 36.1069 -86.5650 360° North 215 247 5,000 -1,020 Descending Memphis Center
02:58PM 36.1625 -86.5419 19° North 208 239 4,000 -900 Descending Memphis Center
02:59PM 36.2117 -86.5217 18° North 203 234 3,200 -780 Descending Memphis Center
03:00PM 36.2406 -86.5717 306° West 155 178 2,500 -540 Descending Memphis Center
03:01PM 36.2211 -86.6242 245° Southwest 128 147 2,200 -300 Descending Memphis Center
03:05PM 36.1167 -86.6667 260° West  Level FlightAware Approximate
03:12PM 36.1245 -86.6782 260° West  Level Estimated
03:13PM 36.1245 -86.6782 260° West  Level Estimated
03:14PM 36.1245 -86.6782 260° West  Level Estimated
03:15PM 36.1245 -86.6782 260° West  Level Estimated
03:16PM 36.1245 -86.6782 260° West  Level Estimated
03:17PM 36.1245 -86.6782 260° West  Level Estimated
03:18PM 36.1245 -86.6782 260° West  Level Estimated